Wetterdaten: aktuell Montag, 10.12.2018 23:00
Datum Zeit Temp. A. Feuchte A. Regen Taupunkt
10.12.2018 23:00 2,3 C 95 % 0,0 l/m 1,6 C
10.12.2018 22:00 2,3 C 95 % 0,0 l/m 1,6 C
10.12.2018 21:00 2,4 C 95 % 0,0 l/m 1,7 C
10.12.2018 20:00 2,3 C 95 % 0,0 l/m 1,6 C
10.12.2018 19:00 1,8 C 94 % 0,0 l/m 0,9 C
10.12.2018 18:00 1,6 C 94 % 0,0 l/m 0,7 C
10.12.2018 17:00 3,0 C 94 % 0,0 l/m 2,1 C
10.12.2018 16:00 3,1 C 94 % 0,0 l/m 2,2 C
10.12.2018 15:00 3,1 C 94 % 0,3 l/m 2,2 C
10.12.2018 14:00 3,6 C 94 % 0,0 l/m 2,7 C
10.12.2018 13:00 3,5 C 93 % 0,0 l/m 2,5 C
10.12.2018 12:00 3,9 C 92 % 0,0 l/m 2,7 C
10.12.2018 11:00 3,7 C 92 % 0,0 l/m 2,5 C
10.12.2018 09:00 3,1 C 94 % 0,0 l/m 2,2 C
10.12.2018 08:00 3,2 C 94 % 0,0 l/m 2,3 C
10.12.2018 07:00 3,3 C 93 % 0,0 l/m 2,3 C
10.12.2018 06:00 3,3 C 93 % 0,0 l/m 2,3 C
10.12.2018 05:00 3,5 C 93 % 0,0 l/m 2,5 C
10.12.2018 04:00 3,7 C 93 % 0,0 l/m 2,7 C
10.12.2018 03:00 3,8 C 94 % 0,0 l/m 2,9 C
10.12.2018 02:00 3,9 C 94 % 0,0 l/m 3,0 C
10.12.2018 01:00 4,0 C 94 % 0,0 l/m 3,1 C
10.12.2018 00:00 4,4 C 94 % 0,0 l/m 3,5 C
_ Min-Zeit 18:00 12:45 - 17:45
Minimum _ 1,6 C 92 % - 0,6 C
_ Max-Zeit 00:15 23:00 15:00 00:15
Maximum _ 4,4 C 95 % 0,3 l/m 3,5 C
Durchschnitt _ 3,2 C 94 % #0,3 l/m 2,3 C